sensor_id;sensor_type;location;lat;lon;timestamp;pressure;altitude;pressure_sealevel;temperature;humidity
13974;BME280;7060;43.770;4.008;2023-07-31T00:00:31;101160.53;;;22.23;40.13
13974;BME280;7060;43.770;4.008;2023-07-31T00:03:00;101163.06;;;22.05;40.38
13974;BME280;7060;43.770;4.008;2023-07-31T00:05:29;101165.38;;;21.95;40.48
13974;BME280;7060;43.770;4.008;2023-07-31T00:07:58;101168.31;;;21.93;40.29
13974;BME280;7060;43.770;4.008;2023-07-31T00:10:29;101164.13;;;21.98;40.56
13974;BME280;7060;43.770;4.008;2023-07-31T00:12:58;101168.28;;;22.00;40.41
13974;BME280;7060;43.770;4.008;2023-07-31T00:15:27;101169.13;;;22.01;40.37
13974;BME280;7060;43.770;4.008;2023-07-31T00:17:56;101168.94;;;21.95;40.73
13974;BME280;7060;43.770;4.008;2023-07-31T00:20:24;101165.19;;;21.90;40.77
13974;BME280;7060;43.770;4.008;2023-07-31T00:22:53;101170.00;;;21.88;40.73
13974;BME280;7060;43.770;4.008;2023-07-31T00:25:24;101173.13;;;21.85;41.03
13974;BME280;7060;43.770;4.008;2023-07-31T00:27:55;101168.72;;;21.84;41.33
13974;BME280;7060;43.770;4.008;2023-07-31T00:30:26;101163.91;;;21.86;41.41
13974;BME280;7060;43.770;4.008;2023-07-31T00:32:55;101175.44;;;21.88;41.17
13974;BME280;7060;43.770;4.008;2023-07-31T00:35:24;101168.31;;;21.93;41.33
13974;BME280;7060;43.770;4.008;2023-07-31T00:37:53;101161.41;;;21.91;41.49
13974;BME280;7060;43.770;4.008;2023-07-31T00:40:22;101152.91;;;22.72;39.89
13974;BME280;7060;43.770;4.008;2023-07-31T00:42:51;101152.16;;;22.18;40.96
13974;BME280;7060;43.770;4.008;2023-07-31T00:45:21;101149.25;;;22.00;41.38
13974;BME280;7060;43.770;4.008;2023-07-31T00:47:55;101154.91;;;21.85;41.80
13974;BME280;7060;43.770;4.008;2023-07-31T00:50:25;101154.28;;;21.70;42.09
13974;BME280;7060;43.770;4.008;2023-07-31T00:52:55;101150.06;;;21.54;42.25
13974;BME280;7060;43.770;4.008;2023-07-31T00:55:24;101158.00;;;21.43;42.34
13974;BME280;7060;43.770;4.008;2023-07-31T00:57:53;101152.13;;;21.33;42.56
13974;BME280;7060;43.770;4.008;2023-07-31T01:00:25;101157.53;;;21.26;42.66
13974;BME280;7060;43.770;4.008;2023-07-31T01:02:54;101157.31;;;21.21;42.79
13974;BME280;7060;43.770;4.008;2023-07-31T01:05:31;101142.22;;;21.05;42.95
13974;BME280;7060;43.770;4.008;2023-07-31T01:08:06;101092.47;;;20.63;42.85
13974;BME280;7060;43.770;4.008;2023-07-31T01:10:45;101138.53;;;20.78;42.98
13974;BME280;7060;43.770;4.008;2023-07-31T01:13:18;101156.13;;;20.82;43.15
13974;BME280;7060;43.770;4.008;2023-07-31T01:15:49;101158.84;;;20.82;43.12
13974;BME280;7060;43.770;4.008;2023-07-31T01:18:19;101166.16;;;20.82;43.21
13974;BME280;7060;43.770;4.008;2023-07-31T01:20:54;101164.91;;;20.91;43.29
13974;BME280;7060;43.770;4.008;2023-07-31T01:23:47;101168.69;;;20.96;43.11
13974;BME280;7060;43.770;4.008;2023-07-31T01:26:24;101180.88;;;21.01;43.25
13974;BME280;7060;43.770;4.008;2023-07-31T01:29:08;101159.06;;;20.94;43.31
13974;BME280;7060;43.770;4.008;2023-07-31T01:31:41;101153.69;;;21.01;43.28
13974;BME280;7060;43.770;4.008;2023-07-31T01:34:14;101167.16;;;21.15;43.25
13974;BME280;7060;43.770;4.008;2023-07-31T01:36:45;101174.03;;;21.18;43.22
13974;BME280;7060;43.770;4.008;2023-07-31T01:39:14;101161.47;;;21.17;43.20
13974;BME280;7060;43.770;4.008;2023-07-31T01:41:46;101154.16;;;21.17;43.22
13974;BME280;7060;43.770;4.008;2023-07-31T01:44:15;101157.06;;;21.16;43.13
13974;BME280;7060;43.770;4.008;2023-07-31T01:46:43;101167.97;;;21.09;43.43
13974;BME280;7060;43.770;4.008;2023-07-31T01:49:12;101160.41;;;21.05;43.49
13974;BME280;7060;43.770;4.008;2023-07-31T01:51:41;101159.13;;;21.01;43.85
13974;BME280;7060;43.770;4.008;2023-07-31T01:54:10;101163.25;;;20.96;43.98
13974;BME280;7060;43.770;4.008;2023-07-31T01:56:39;101165.53;;;20.86;44.35
13974;BME280;7060;43.770;4.008;2023-07-31T01:59:10;101164.88;;;20.78;44.34
13974;BME280;7060;43.770;4.008;2023-07-31T02:01:39;101163.78;;;20.72;44.75
13974;BME280;7060;43.770;4.008;2023-07-31T02:04:08;101159.84;;;20.75;45.03
13974;BME280;7060;43.770;4.008;2023-07-31T02:06:37;101168.81;;;20.75;45.11
13974;BME280;7060;43.770;4.008;2023-07-31T02:09:06;101163.41;;;20.75;45.14
13974;BME280;7060;43.770;4.008;2023-07-31T02:11:35;101166.75;;;20.77;45.19
13974;BME280;7060;43.770;4.008;2023-07-31T02:14:04;101158.41;;;20.79;45.28
13974;BME280;7060;43.770;4.008;2023-07-31T02:16:35;101161.97;;;20.79;45.16
13974;BME280;7060;43.770;4.008;2023-07-31T02:19:05;101149.81;;;20.75;45.24
13974;BME280;7060;43.770;4.008;2023-07-31T02:21:34;101152.50;;;20.69;45.61
13974;BME280;7060;43.770;4.008;2023-07-31T02:24:03;101151.84;;;20.60;45.72
13974;BME280;7060;43.770;4.008;2023-07-31T02:26:32;101153.69;;;20.53;46.00
13974;BME280;7060;43.770;4.008;2023-07-31T02:29:02;101138.19;;;20.47;46.11
13974;BME280;7060;43.770;4.008;2023-07-31T02:31:31;101137.94;;;20.42;46.28
13974;BME280;7060;43.770;4.008;2023-07-31T02:34:01;101130.44;;;20.44;46.39
13974;BME280;7060;43.770;4.008;2023-07-31T02:36:30;101127.47;;;20.39;46.57
13974;BME280;7060;43.770;4.008;2023-07-31T02:38:59;101123.72;;;20.33;46.62
13974;BME280;7060;43.770;4.008;2023-07-31T02:41:28;101126.63;;;20.32;46.88
13974;BME280;7060;43.770;4.008;2023-07-31T02:43:56;101125.97;;;20.30;47.08
13974;BME280;7060;43.770;4.008;2023-07-31T02:46:26;101122.41;;;20.29;47.20
13974;BME280;7060;43.770;4.008;2023-07-31T02:48:55;101120.69;;;20.21;47.41
13974;BME280;7060;43.770;4.008;2023-07-31T02:51:25;101127.41;;;20.25;47.16
13974;BME280;7060;43.770;4.008;2023-07-31T02:53:54;101119.84;;;20.21;47.23
13974;BME280;7060;43.770;4.008;2023-07-31T02:56:23;101121.34;;;20.23;47.18
13974;BME280;7060;43.770;4.008;2023-07-31T02:58:52;101120.41;;;20.16;47.18
13974;BME280;7060;43.770;4.008;2023-07-31T03:01:21;101123.34;;;20.15;47.40
13974;BME280;7060;43.770;4.008;2023-07-31T03:03:50;101121.41;;;20.09;47.42
13974;BME280;7060;43.770;4.008;2023-07-31T03:06:19;101111.13;;;19.98;47.43
13974;BME280;7060;43.770;4.008;2023-07-31T03:08:50;101119.41;;;19.89;47.52
13974;BME280;7060;43.770;4.008;2023-07-31T03:11:18;101120.38;;;19.82;47.73
13974;BME280;7060;43.770;4.008;2023-07-31T03:13:47;101125.16;;;19.80;47.80
13974;BME280;7060;43.770;4.008;2023-07-31T03:16:16;101137.69;;;19.81;47.60
13974;BME280;7060;43.770;4.008;2023-07-31T03:18:45;101133.47;;;19.72;47.58
13974;BME280;7060;43.770;4.008;2023-07-31T03:21:14;101132.81;;;19.70;47.52
13974;BME280;7060;43.770;4.008;2023-07-31T03:23:44;101133.22;;;19.67;47.45
13974;BME280;7060;43.770;4.008;2023-07-31T03:26:14;101133.78;;;19.62;47.33
13974;BME280;7060;43.770;4.008;2023-07-31T03:28:43;101135.59;;;19.55;47.55
13974;BME280;7060;43.770;4.008;2023-07-31T03:31:12;101132.66;;;19.50;47.56
13974;BME280;7060;43.770;4.008;2023-07-31T03:33:41;101129.22;;;19.41;47.84
13974;BME280;7060;43.770;4.008;2023-07-31T03:36:10;101123.34;;;19.38;48.13
13974;BME280;7060;43.770;4.008;2023-07-31T03:38:40;101119.88;;;19.29;48.65
13974;BME280;7060;43.770;4.008;2023-07-31T03:41:09;101121.44;;;19.17;49.02
13974;BME280;7060;43.770;4.008;2023-07-31T03:43:40;101119.31;;;19.12;49.02
13974;BME280;7060;43.770;4.008;2023-07-31T03:46:09;101118.38;;;19.05;48.73
13974;BME280;7060;43.770;4.008;2023-07-31T03:48:38;101119.97;;;19.00;48.79
13974;BME280;7060;43.770;4.008;2023-07-31T03:51:07;101114.06;;;18.89;48.52
13974;BME280;7060;43.770;4.008;2023-07-31T03:53:36;101116.50;;;18.84;48.95
13974;BME280;7060;43.770;4.008;2023-07-31T03:56:05;101120.22;;;18.83;49.24
13974;BME280;7060;43.770;4.008;2023-07-31T03:58:34;101121.34;;;18.74;49.62
13974;BME280;7060;43.770;4.008;2023-07-31T04:01:05;101117.75;;;18.67;49.67
13974;BME280;7060;43.770;4.008;2023-07-31T04:03:35;101114.13;;;18.60;49.87
13974;BME280;7060;43.770;4.008;2023-07-31T04:06:04;101125.31;;;18.57;50.07
13974;BME280;7060;43.770;4.008;2023-07-31T04:08:34;101129.44;;;18.53;50.17
13974;BME280;7060;43.770;4.008;2023-07-31T04:11:05;101120.28;;;18.54;50.19
13974;BME280;7060;43.770;4.008;2023-07-31T04:13:34;101117.25;;;18.49;50.55
13974;BME280;7060;43.770;4.008;2023-07-31T04:16:04;101114.00;;;18.39;51.04
13974;BME280;7060;43.770;4.008;2023-07-31T04:18:33;101114.19;;;18.37;50.89
13974;BME280;7060;43.770;4.008;2023-07-31T04:21:02;101119.16;;;18.34;51.04
13974;BME280;7060;43.770;4.008;2023-07-31T04:23:32;101122.22;;;18.31;51.35
13974;BME280;7060;43.770;4.008;2023-07-31T04:26:01;101117.28;;;18.34;51.36
13974;BME280;7060;43.770;4.008;2023-07-31T04:28:30;101110.28;;;18.25;51.59
13974;BME280;7060;43.770;4.008;2023-07-31T04:30:59;101116.91;;;18.22;51.58
13974;BME280;7060;43.770;4.008;2023-07-31T04:33:30;101112.03;;;18.18;51.78
13974;BME280;7060;43.770;4.008;2023-07-31T04:35:59;101118.41;;;18.10;51.99
13974;BME280;7060;43.770;4.008;2023-07-31T04:38:28;101125.03;;;18.08;51.98
13974;BME280;7060;43.770;4.008;2023-07-31T04:40:57;101136.94;;;17.99;52.30
13974;BME280;7060;43.770;4.008;2023-07-31T04:43:26;101133.09;;;17.93;52.51
13974;BME280;7060;43.770;4.008;2023-07-31T04:45:54;101125.09;;;17.85;52.56
13974;BME280;7060;43.770;4.008;2023-07-31T04:48:24;101132.91;;;17.80;52.74
13974;BME280;7060;43.770;4.008;2023-07-31T04:50:55;101135.78;;;17.78;52.77
13974;BME280;7060;43.770;4.008;2023-07-31T04:53:24;101140.06;;;17.73;52.69
13974;BME280;7060;43.770;4.008;2023-07-31T04:55:53;101147.69;;;17.69;52.56
13974;BME280;7060;43.770;4.008;2023-07-31T04:58:22;101141.44;;;17.69;52.59
13974;BME280;7060;43.770;4.008;2023-07-31T05:00:50;101136.88;;;17.69;52.28
13974;BME280;7060;43.770;4.008;2023-07-31T05:03:19;101147.88;;;17.68;52.62
13974;BME280;7060;43.770;4.008;2023-07-31T05:05:49;101149.63;;;17.60;52.81
13974;BME280;7060;43.770;4.008;2023-07-31T05:08:19;101147.63;;;17.54;52.95
13974;BME280;7060;43.770;4.008;2023-07-31T05:10:48;101146.31;;;17.50;53.25
13974;BME280;7060;43.770;4.008;2023-07-31T05:13:17;101153.75;;;17.48;53.38
13974;BME280;7060;43.770;4.008;2023-07-31T05:15:46;101149.91;;;17.43;53.52
13974;BME280;7060;43.770;4.008;2023-07-31T05:18:16;101153.94;;;17.47;53.08
13974;BME280;7060;43.770;4.008;2023-07-31T05:20:45;101149.00;;;17.50;53.05
13974;BME280;7060;43.770;4.008;2023-07-31T05:23:14;101151.91;;;17.49;52.98
13974;BME280;7060;43.770;4.008;2023-07-31T05:25:44;101157.78;;;17.52;53.04
13974;BME280;7060;43.770;4.008;2023-07-31T05:28:13;101153.88;;;17.55;53.38
13974;BME280;7060;43.770;4.008;2023-07-31T05:30:42;101148.28;;;17.56;53.39
13974;BME280;7060;43.770;4.008;2023-07-31T05:33:11;101138.25;;;17.65;53.09
13974;BME280;7060;43.770;4.008;2023-07-31T05:35:41;101154.44;;;17.73;53.38
13974;BME280;7060;43.770;4.008;2023-07-31T05:38:12;101157.25;;;17.80;53.41
13974;BME280;7060;43.770;4.008;2023-07-31T05:40:44;101163.88;;;17.92;53.53
13974;BME280;7060;43.770;4.008;2023-07-31T05:43:12;101150.16;;;17.93;53.17
13974;BME280;7060;43.770;4.008;2023-07-31T05:45:42;101160.75;;;18.03;53.11
13974;BME280;7060;43.770;4.008;2023-07-31T05:48:11;101157.69;;;18.21;53.03
13974;BME280;7060;43.770;4.008;2023-07-31T05:50:40;101159.00;;;18.40;52.97
13974;BME280;7060;43.770;4.008;2023-07-31T05:53:08;101152.22;;;18.58;52.50
13974;BME280;7060;43.770;4.008;2023-07-31T05:55:37;101158.72;;;18.79;52.45
13974;BME280;7060;43.770;4.008;2023-07-31T05:58:07;101155.03;;;19.01;52.32
13974;BME280;7060;43.770;4.008;2023-07-31T06:00:37;101151.91;;;19.19;52.04
13974;BME280;7060;43.770;4.008;2023-07-31T06:03:06;101151.00;;;19.33;51.74
13974;BME280;7060;43.770;4.008;2023-07-31T06:05:35;101145.56;;;19.48;51.65
13974;BME280;7060;43.770;4.008;2023-07-31T06:08:04;101147.81;;;19.66;51.63
13974;BME280;7060;43.770;4.008;2023-07-31T06:10:33;101151.78;;;19.91;51.66
13974;BME280;7060;43.770;4.008;2023-07-31T06:13:02;101140.91;;;20.47;50.86
13974;BME280;7060;43.770;4.008;2023-07-31T06:15:32;101138.88;;;21.16;49.16
13974;BME280;7060;43.770;4.008;2023-07-31T06:18:01;101136.28;;;21.89;48.44
13974;BME280;7060;43.770;4.008;2023-07-31T06:20:32;101139.94;;;22.60;46.20
13974;BME280;7060;43.770;4.008;2023-07-31T06:23:01;101130.81;;;23.31;44.23
13974;BME280;7060;43.770;4.008;2023-07-31T06:25:31;101135.75;;;23.97;42.29
13974;BME280;7060;43.770;4.008;2023-07-31T06:27:59;101128.59;;;24.57;41.91
13974;BME280;7060;43.770;4.008;2023-07-31T06:30:28;101129.38;;;25.13;40.64
13974;BME280;7060;43.770;4.008;2023-07-31T06:32:59;101126.59;;;25.73;39.29
13974;BME280;7060;43.770;4.008;2023-07-31T06:35:28;101125.97;;;26.41;37.06
13974;BME280;7060;43.770;4.008;2023-07-31T06:37:56;101124.31;;;26.91;35.53
13974;BME280;7060;43.770;4.008;2023-07-31T06:40:26;101121.81;;;27.18;34.15
13974;BME280;7060;43.770;4.008;2023-07-31T06:42:54;101111.59;;;27.59;33.72
13974;BME280;7060;43.770;4.008;2023-07-31T06:45:24;101113.25;;;28.10;34.00
13974;BME280;7060;43.770;4.008;2023-07-31T06:47:53;101115.94;;;28.44;32.22
13974;BME280;7060;43.770;4.008;2023-07-31T06:50:23;101110.72;;;28.91;31.31
13974;BME280;7060;43.770;4.008;2023-07-31T06:52:52;101111.34;;;29.20;30.67
13974;BME280;7060;43.770;4.008;2023-07-31T06:55:22;101102.38;;;29.61;29.93
13974;BME280;7060;43.770;4.008;2023-07-31T06:57:52;101098.28;;;30.06;28.58
13974;BME280;7060;43.770;4.008;2023-07-31T07:00:22;101111.19;;;30.48;28.38
13974;BME280;7060;43.770;4.008;2023-07-31T07:02:51;101109.69;;;30.77;27.73
13974;BME280;7060;43.770;4.008;2023-07-31T07:05:20;101105.91;;;31.04;27.30
13974;BME280;7060;43.770;4.008;2023-07-31T07:07:51;101098.47;;;31.19;26.79
13974;BME280;7060;43.770;4.008;2023-07-31T07:10:20;101102.13;;;31.40;26.40
13974;BME280;7060;43.770;4.008;2023-07-31T07:12:48;101095.22;;;31.53;26.55
13974;BME280;7060;43.770;4.008;2023-07-31T07:15:17;101090.78;;;31.67;25.81
13974;BME280;7060;43.770;4.008;2023-07-31T07:17:46;101090.25;;;31.80;25.68
13974;BME280;7060;43.770;4.008;2023-07-31T07:20:16;101077.50;;;31.89;25.58
13974;BME280;7060;43.770;4.008;2023-07-31T07:22:44;101072.72;;;32.15;24.64
13974;BME280;7060;43.770;4.008;2023-07-31T07:25:15;101074.38;;;32.32;24.69
13974;BME280;7060;43.770;4.008;2023-07-31T07:27:44;101065.41;;;32.55;24.48
13974;BME280;7060;43.770;4.008;2023-07-31T07:30:13;101052.59;;;32.69;24.58
13974;BME280;7060;43.770;4.008;2023-07-31T07:32:42;101044.41;;;32.98;24.21
13974;BME280;7060;43.770;4.008;2023-07-31T07:35:11;101049.25;;;32.82;24.31
13974;BME280;7060;43.770;4.008;2023-07-31T07:37:40;101049.47;;;32.91;24.31
13974;BME280;7060;43.770;4.008;2023-07-31T07:40:09;101049.91;;;33.03;23.57
13974;BME280;7060;43.770;4.008;2023-07-31T07:42:40;101056.75;;;33.16;23.60
13974;BME280;7060;43.770;4.008;2023-07-31T07:45:09;101057.41;;;33.03;23.61
13974;BME280;7060;43.770;4.008;2023-07-31T07:47:40;101058.97;;;33.19;23.68
13974;BME280;7060;43.770;4.008;2023-07-31T07:50:09;101061.38;;;33.25;23.96
13974;BME280;7060;43.770;4.008;2023-07-31T07:52:38;101061.66;;;33.29;23.92
13974;BME280;7060;43.770;4.008;2023-07-31T07:55:08;101063.03;;;33.32;23.77
13974;BME280;7060;43.770;4.008;2023-07-31T07:57:37;101069.72;;;33.59;23.64
13974;BME280;7060;43.770;4.008;2023-07-31T08:00:08;101068.63;;;33.55;23.30
13974;BME280;7060;43.770;4.008;2023-07-31T08:02:42;101067.38;;;33.43;23.35
13974;BME280;7060;43.770;4.008;2023-07-31T08:05:11;101066.56;;;33.42;23.53
13974;BME280;7060;43.770;4.008;2023-07-31T08:07:40;101062.78;;;33.23;23.50
13974;BME280;7060;43.770;4.008;2023-07-31T08:10:09;101057.69;;;33.01;23.18
13974;BME280;7060;43.770;4.008;2023-07-31T08:12:38;101056.75;;;32.72;23.85
13974;BME280;7060;43.770;4.008;2023-07-31T08:15:09;101041.31;;;32.60;24.17
13974;BME280;7060;43.770;4.008;2023-07-31T08:17:38;101046.88;;;32.55;23.78
13974;BME280;7060;43.770;4.008;2023-07-31T08:20:08;101051.97;;;32.28;23.98
13974;BME280;7060;43.770;4.008;2023-07-31T08:22:37;101052.88;;;32.08;24.17
13974;BME280;7060;43.770;4.008;2023-07-31T08:25:06;101046.81;;;31.96;24.67
13974;BME280;7060;43.770;4.008;2023-07-31T08:27:35;101041.03;;;31.82;24.16
13974;BME280;7060;43.770;4.008;2023-07-31T08:30:05;101039.09;;;31.68;24.38
13974;BME280;7060;43.770;4.008;2023-07-31T08:32:37;101029.16;;;31.56;24.32
13974;BME280;7060;43.770;4.008;2023-07-31T08:35:06;101031.66;;;31.48;23.90
13974;BME280;7060;43.770;4.008;2023-07-31T08:37:35;101026.97;;;31.43;24.29
13974;BME280;7060;43.770;4.008;2023-07-31T08:40:05;101023.94;;;31.40;24.11
13974;BME280;7060;43.770;4.008;2023-07-31T08:42:43;101009.56;;;31.38;23.45
13974;BME280;7060;43.770;4.008;2023-07-31T08:45:14;101004.31;;;31.31;23.59
13974;BME280;7060;43.770;4.008;2023-07-31T08:47:48;100993.81;;;31.18;24.31
13974;BME280;7060;43.770;4.008;2023-07-31T08:50:18;101012.34;;;31.22;23.56
13974;BME280;7060;43.770;4.008;2023-07-31T08:52:49;101013.69;;;31.20;23.94
13974;BME280;7060;43.770;4.008;2023-07-31T08:55:19;101000.47;;;31.22;23.88
13974;BME280;7060;43.770;4.008;2023-07-31T08:57:51;101004.28;;;31.11;23.45
13974;BME280;7060;43.770;4.008;2023-07-31T09:00:20;101004.28;;;31.06;23.09
13974;BME280;7060;43.770;4.008;2023-07-31T09:02:56;100986.34;;;30.93;22.86
13974;BME280;7060;43.770;4.008;2023-07-31T09:05:26;100990.47;;;30.90;22.88
13974;BME280;7060;43.770;4.008;2023-07-31T09:07:57;100989.94;;;30.88;23.80
13974;BME280;7060;43.770;4.008;2023-07-31T09:10:26;100986.34;;;30.93;23.03
13974;BME280;7060;43.770;4.008;2023-07-31T09:12:55;100984.41;;;30.93;23.48
13974;BME280;7060;43.770;4.008;2023-07-31T09:15:25;100974.19;;;30.69;23.32
13974;BME280;7060;43.770;4.008;2023-07-31T09:18:07;100964.19;;;30.57;23.49
13974;BME280;7060;43.770;4.008;2023-07-31T09:20:36;100974.44;;;30.77;23.16
13974;BME280;7060;43.770;4.008;2023-07-31T09:23:06;100914.78;;;30.56;23.20
13974;BME280;7060;43.770;4.008;2023-07-31T09:25:37;100977.53;;;30.96;23.46
13974;BME280;7060;43.770;4.008;2023-07-31T09:28:08;100970.03;;;31.02;23.07
13974;BME280;7060;43.770;4.008;2023-07-31T09:30:48;100963.47;;;31.23;22.85
13974;BME280;7060;43.770;4.008;2023-07-31T09:33:19;100965.34;;;31.38;22.47
13974;BME280;7060;43.770;4.008;2023-07-31T09:35:49;100970.31;;;31.51;22.51
13974;BME280;7060;43.770;4.008;2023-07-31T09:38:18;100970.00;;;31.68;23.02
13974;BME280;7060;43.770;4.008;2023-07-31T09:40:48;100962.00;;;31.76;22.70
13974;BME280;7060;43.770;4.008;2023-07-31T09:43:19;100971.94;;;31.82;23.07
13974;BME280;7060;43.770;4.008;2023-07-31T09:45:54;100958.88;;;31.93;22.80
13974;BME280;7060;43.770;4.008;2023-07-31T09:48:25;100953.03;;;32.05;22.30
13974;BME280;7060;43.770;4.008;2023-07-31T09:51:04;100890.63;;;31.83;22.62
13974;BME280;7060;43.770;4.008;2023-07-31T09:53:33;100957.06;;;32.33;22.32
13974;BME280;7060;43.770;4.008;2023-07-31T09:56:02;100950.34;;;32.44;22.10
13974;BME280;7060;43.770;4.008;2023-07-31T09:58:34;100943.44;;;32.41;21.81
13974;BME280;7060;43.770;4.008;2023-07-31T10:01:04;100947.53;;;32.49;21.86
13974;BME280;7060;43.770;4.008;2023-07-31T10:03:35;100935.91;;;32.52;21.66
13974;BME280;7060;43.770;4.008;2023-07-31T10:06:07;100913.50;;;32.48;21.91
13974;BME280;7060;43.770;4.008;2023-07-31T10:08:38;100915.25;;;32.73;21.84
13974;BME280;7060;43.770;4.008;2023-07-31T10:11:09;100923.47;;;32.88;21.27
13974;BME280;7060;43.770;4.008;2023-07-31T10:13:39;100919.72;;;33.03;21.87
13974;BME280;7060;43.770;4.008;2023-07-31T10:16:10;100921.75;;;33.21;21.40
13974;BME280;7060;43.770;4.008;2023-07-31T10:18:42;100919.66;;;33.42;21.24
13974;BME280;7060;43.770;4.008;2023-07-31T10:21:12;100917.81;;;33.56;21.09
13974;BME280;7060;43.770;4.008;2023-07-31T10:23:43;100896.28;;;33.48;21.14
13974;BME280;7060;43.770;4.008;2023-07-31T10:26:16;100909.16;;;33.63;20.53
13974;BME280;7060;43.770;4.008;2023-07-31T10:28:46;100906.63;;;33.67;21.00
13974;BME280;7060;43.770;4.008;2023-07-31T10:31:16;100897.88;;;33.78;20.36
13974;BME280;7060;43.770;4.008;2023-07-31T10:33:48;100894.00;;;33.79;20.61
13974;BME280;7060;43.770;4.008;2023-07-31T10:36:19;100891.50;;;33.54;20.62
13974;BME280;7060;43.770;4.008;2023-07-31T10:38:49;100892.69;;;33.48;20.85
13974;BME280;7060;43.770;4.008;2023-07-31T10:41:19;100896.28;;;33.48;20.84
13974;BME280;7060;43.770;4.008;2023-07-31T10:43:47;100889.50;;;33.59;21.20
13974;BME280;7060;43.770;4.008;2023-07-31T10:46:16;100887.28;;;33.61;20.65
13974;BME280;7060;43.770;4.008;2023-07-31T10:48:45;100882.78;;;33.66;20.76
13974;BME280;7060;43.770;4.008;2023-07-31T10:51:32;100885.13;;;33.77;20.74
13974;BME280;7060;43.770;4.008;2023-07-31T10:54:20;100883.25;;;33.73;20.57
13974;BME280;7060;43.770;4.008;2023-07-31T10:56:50;100873.47;;;33.80;20.45
13974;BME280;7060;43.770;4.008;2023-07-31T10:59:26;100865.38;;;33.84;20.63
13974;BME280;7060;43.770;4.008;2023-07-31T11:01:56;100868.75;;;33.81;20.51
13974;BME280;7060;43.770;4.008;2023-07-31T11:04:26;100867.84;;;33.85;20.10
13974;BME280;7060;43.770;4.008;2023-07-31T11:06:58;100861.34;;;33.95;20.35
13974;BME280;7060;43.770;4.008;2023-07-31T11:09:28;100860.16;;;34.01;20.51
13974;BME280;7060;43.770;4.008;2023-07-31T11:11:59;100863.66;;;34.07;20.72
13974;BME280;7060;43.770;4.008;2023-07-31T11:14:28;100858.34;;;34.10;20.79
13974;BME280;7060;43.770;4.008;2023-07-31T11:16:57;100857.22;;;34.11;20.72
13974;BME280;7060;43.770;4.008;2023-07-31T11:19:26;100859.63;;;34.18;20.83
13974;BME280;7060;43.770;4.008;2023-07-31T11:21:56;100847.94;;;34.21;20.43
13974;BME280;7060;43.770;4.008;2023-07-31T11:24:25;100856.03;;;34.17;20.45
13974;BME280;7060;43.770;4.008;2023-07-31T11:26:55;100857.31;;;34.25;20.51
13974;BME280;7060;43.770;4.008;2023-07-31T11:29:27;100851.31;;;34.18;20.55
13974;BME280;7060;43.770;4.008;2023-07-31T11:31:56;100848.38;;;34.09;20.23
13974;BME280;7060;43.770;4.008;2023-07-31T11:34:25;100839.28;;;34.04;20.35
13974;BME280;7060;43.770;4.008;2023-07-31T11:36:55;100838.03;;;34.15;20.34
13974;BME280;7060;43.770;4.008;2023-07-31T11:39:26;100830.97;;;34.22;20.33
13974;BME280;7060;43.770;4.008;2023-07-31T11:41:58;100834.22;;;34.29;20.30
13974;BME280;7060;43.770;4.008;2023-07-31T11:44:37;100830.59;;;34.48;20.30
13974;BME280;7060;43.770;4.008;2023-07-31T11:47:07;100828.03;;;34.51;19.96
13974;BME280;7060;43.770;4.008;2023-07-31T11:49:37;100819.94;;;34.55;19.81
13974;BME280;7060;43.770;4.008;2023-07-31T11:52:06;100816.44;;;34.63;19.88
13974;BME280;7060;43.770;4.008;2023-07-31T11:54:37;100812.53;;;34.64;19.34
13974;BME280;7060;43.770;4.008;2023-07-31T11:57:07;100811.19;;;34.61;20.14
13974;BME280;7060;43.770;4.008;2023-07-31T11:59:38;100805.25;;;34.68;19.80
13974;BME280;7060;43.770;4.008;2023-07-31T12:02:07;100800.44;;;34.74;19.87
13974;BME280;7060;43.770;4.008;2023-07-31T12:04:37;100787.00;;;34.81;19.97
13974;BME280;7060;43.770;4.008;2023-07-31T12:07:06;100783.81;;;34.87;19.82
13974;BME280;7060;43.770;4.008;2023-07-31T12:09:37;100776.72;;;34.95;19.50
13974;BME280;7060;43.770;4.008;2023-07-31T12:12:08;100782.78;;;34.97;19.42
13974;BME280;7060;43.770;4.008;2023-07-31T12:14:41;100769.22;;;34.95;19.33
13974;BME280;7060;43.770;4.008;2023-07-31T12:17:11;100774.47;;;34.83;19.60
13974;BME280;7060;43.770;4.008;2023-07-31T12:19:40;100764.66;;;34.86;19.77
13974;BME280;7060;43.770;4.008;2023-07-31T12:22:12;100762.72;;;34.86;19.42
13974;BME280;7060;43.770;4.008;2023-07-31T12:24:44;100757.88;;;34.92;19.14
13974;BME280;7060;43.770;4.008;2023-07-31T12:27:14;100761.06;;;34.85;19.03
13974;BME280;7060;43.770;4.008;2023-07-31T12:29:45;100759.41;;;34.84;19.52
13974;BME280;7060;43.770;4.008;2023-07-31T12:32:22;100751.72;;;34.81;19.34
13974;BME280;7060;43.770;4.008;2023-07-31T12:34:52;100750.91;;;34.81;19.33
13974;BME280;7060;43.770;4.008;2023-07-31T12:37:21;100741.28;;;34.73;19.34
13974;BME280;7060;43.770;4.008;2023-07-31T12:39:51;100736.72;;;34.82;18.99
13974;BME280;7060;43.770;4.008;2023-07-31T12:42:20;100741.63;;;34.85;19.41
13974;BME280;7060;43.770;4.008;2023-07-31T12:44:49;100739.16;;;34.98;19.28
13974;BME280;7060;43.770;4.008;2023-07-31T12:47:19;100735.25;;;34.99;19.29
13974;BME280;7060;43.770;4.008;2023-07-31T12:49:49;100728.16;;;35.06;19.02
13974;BME280;7060;43.770;4.008;2023-07-31T12:52:18;100710.88;;;35.09;19.29
13974;BME280;7060;43.770;4.008;2023-07-31T12:54:47;100726.59;;;35.14;19.20
13974;BME280;7060;43.770;4.008;2023-07-31T12:57:17;100713.81;;;35.13;19.06
13974;BME280;7060;43.770;4.008;2023-07-31T12:59:47;100715.47;;;35.14;19.21
13974;BME280;7060;43.770;4.008;2023-07-31T13:02:16;100700.34;;;35.20;19.10
13974;BME280;7060;43.770;4.008;2023-07-31T13:04:47;100711.91;;;35.27;19.30
13974;BME280;7060;43.770;4.008;2023-07-31T13:07:16;100707.88;;;35.33;19.04
13974;BME280;7060;43.770;4.008;2023-07-31T13:09:45;100704.66;;;35.40;18.92
13974;BME280;7060;43.770;4.008;2023-07-31T13:12:17;100698.56;;;35.51;18.52
13974;BME280;7060;43.770;4.008;2023-07-31T13:14:46;100700.00;;;35.49;18.66